KMVE/MVE METAR and TAF weather

Enter ICAO airport designator
Station Type Date Time Source
KMVE METAR 2019/12/06 13:56 UTC NOAA

KMVE 061356Z AUTO 31004KT 10SM CLR M11/M12 A3038 RMK AO2


Station Type Date Time Source
KMVE Decoded METAR 2019/12/06 13:56 UTC NOAA

Montevideo, Montevideo-Chippewa County Airport, MN, United States (KMVE) 44-58N 095-43W
Dec 06, 2019 - 08:56 AM EST / 2019.12.06 1356 UTC
Wind: from the NW (310 degrees) at 5 MPH (4 KT):0
Visibility: 10 mile(s):0
Sky conditions: clear
Temperature: 12 F (-11 C)
Windchill: 3 F (-16 C):1
Dew Point: 10 F (-12 C)
Relative Humidity: 92%
Pressure (altimeter): 30.38 in. Hg (1028 hPa)
ob: KMVE 061356Z AUTO 31004KT 10SM CLR M11/M12 A3038 RMK AO2
cycle: 14

Station Type Date Time Source
KMVE TAF UTC NOAA

Error!

Example: see airport list